Time;durP1;ratioP1;P1;durP2;ratioP2;P2;SDS_P1;SDS_P2;PMS_P1;PMS_P2;Temp;Humidity;BMP_temperature;BMP_pressure;BME280_temperature;BME280_humidity;BME280_pressure;Samples;Min_cycle;Max_cycle;Signal;HPM_P1;HPM_P2
2021/03/20 06:00:52;;;;;;;0.20;0.20;;;;;;;;;;5071615;27;20357;-60
2021/03/20 06:03:39;;;;;;;0.30;0.30;;;;;;;;;;5081640;28;20551;-60
2021/03/20 06:06:15;;;;;;;0.20;0.20;;;;;;;;;;5080354;28;20039;-60
2021/03/20 06:09:07;;;;;;;0.20;0.20;;;;;;;;;;5071978;28;20068;-60
2021/03/20 06:11:51;;;;;;;0.30;0.30;;;;;;;;;;5030642;28;20065;-60
2021/03/20 06:14:20;;;;;;;0.30;0.30;;;;;;;;;;5029591;28;20037;-61
2021/03/20 06:16:46;;;;;;;0.30;0.30;;;;;;;;;;5029375;28;20034;-60
2021/03/20 06:19:21;;;;;;;0.30;0.30;;;;;;;;;;5030118;28;20079;-60
2021/03/20 06:22:06;;;;;;;0.28;0.28;;;;;;;;;;5026533;28;20038;-60
2021/03/20 06:24:38;;;;;;;0.30;0.30;;;;;;;;;;5025276;28;20034;-60
2021/03/20 06:27:04;;;;;;;0.22;0.22;;;;;;;;;;5033963;28;20034;-60
2021/03/20 06:29:35;;;;;;;0.20;0.20;;;;;;;;;;5022299;28;20041;-60
2021/03/20 06:32:22;;;;;;;0.28;0.28;;;;;;;;;;5022059;28;20057;-60
2021/03/20 06:35:03;;;;;;;0.20;0.20;;;;;;;;;;5019559;28;20080;-60
2021/03/20 06:37:32;;;;;;;0.73;0.73;;;;;;;;;;5023061;28;20481;-60
2021/03/20 06:40:02;;;;;;;0.30;0.30;;;;;;;;;;5023844;28;20064;-60
2021/03/20 06:42:30;;;;;;;0.20;0.20;;;;;;;;;;5021724;28;20048;-60
2021/03/20 06:44:59;;;;;;;0.30;0.30;;;;;;;;;;5030104;28;20037;-60
2021/03/20 06:47:28;;;;;;;0.20;0.20;;;;;;;;;;5031468;28;20038;-65
2021/03/20 06:50:02;;;;;;;0.40;0.40;;;;;;;;;;5062563;28;20453;-59
2021/03/20 06:52:28;;;;;;;0.13;0.13;;;;;;;;;;5068921;28;20025;-60
2021/03/20 06:55:15;;;;;;;0.20;0.20;;;;;;;;;;5065605;28;20045;-60
2021/03/20 06:57:41;;;;;;;0.20;0.20;;;;;;;;;;5044656;28;20388;-60
2021/03/20 07:00:15;;;;;;;0.20;0.20;;;;;;;;;;5038492;28;20049;-60
2021/03/20 07:03:05;;;;;;;0.28;0.28;;;;;;;;;;5030198;28;20041;-60
2021/03/20 07:05:34;;;;;;;0.25;0.25;;;;;;;;;;4953707;28;20521;-60
2021/03/20 07:08:03;;;;;;;0.30;0.30;;;;;;;;;;4953355;28;20058;-59
2021/03/20 07:10:38;;;;;;;0.30;0.30;;;;;;;;;;4953451;28;20568;-59
2021/03/20 07:13:16;;;;;;;0.35;0.35;;;;;;;;;;4953459;28;20469;-59
2021/03/20 07:15:42;;;;;;;0.30;0.30;;;;;;;;;;4954936;28;20085;-60
2021/03/20 07:18:17;;;;;;;0.25;0.25;;;;;;;;;;4918501;28;20052;-59
2021/03/20 07:20:43;;;;;;;;;;;;;;;;;;4945939;28;20046;-60
2021/03/20 07:23:14;;;;;;;0.40;0.40;;;;;;;;;;4951174;28;20000;-60
2021/03/20 07:25:43;;;;;;;0.10;0.10;;;;;;;;;;4951997;28;20031;-60
2021/03/20 07:28:09;;;;;;;0.38;0.38;;;;;;;;;;4945480;28;20122;-60
2021/03/20 07:30:38;;;;;;;0.20;0.20;;;;;;;;;;4951068;28;20041;-61
2021/03/20 07:33:22;;;;;;;0.20;0.20;;;;;;;;;;4951848;29;20560;-60
2021/03/20 07:35:48;;;;;;;0.30;0.30;;;;;;;;;;4968620;28;20043;-60
2021/03/20 07:38:25;;;;;;;0.10;0.10;;;;;;;;;;4972239;28;20502;-60
2021/03/20 07:41:04;;;;;;;0.17;0.17;;;;;;;;;;4973366;28;20520;-61
2021/03/20 07:43:30;;;;;;;0.20;0.20;;;;;;;;;;5042338;28;20037;-60
2021/03/20 07:46:06;;;;;;;0.57;0.57;;;;;;;;;;5049068;28;20479;-62
2021/03/20 07:48:32;;;;;;;0.10;0.10;;;;;;;;;;5049468;28;20033;-60
2021/03/20 07:51:01;;;;;;;0.10;0.10;;;;;;;;;;5051996;28;20445;-60
2021/03/20 07:53:28;;;;;;;0.20;0.20;;;;;;;;;;5048994;28;20037;-61
2021/03/20 07:55:57;;;;;;;0.20;0.20;;;;;;;;;;5049356;28;20017;-60
2021/03/20 07:58:30;;;;;;;0.10;0.10;;;;;;;;;;5048337;28;20070;-60
2021/03/20 08:00:58;;;;;;;0.10;0.10;;;;;;;;;;5048442;28;20052;-59
2021/03/20 08:03:26;;;;;;;0.10;0.10;;;;;;;;;;5050478;28;20049;-59
2021/03/20 08:05:52;;;;;;;0.10;0.10;;;;;;;;;;5050927;28;20538;-60
2021/03/20 08:08:23;;;;;;;0.20;0.20;;;;;;;;;;5048699;28;20573;-60
2021/03/20 08:10:52;;;;;;;0.20;0.20;;;;;;;;;;5048960;28;20025;-59
2021/03/20 08:13:34;;;;;;;0.10;0.10;;;;;;;;;;5048075;28;20401;-60
2021/03/20 08:16:01;;;;;;;0.10;0.10;;;;;;;;;;5048550;28;20059;-62
2021/03/20 08:18:28;;;;;;;0.10;0.10;;;;;;;;;;5050288;28;20044;-60
2021/03/20 08:20:58;;;;;;;0.20;0.20;;;;;;;;;;5049937;28;20465;-60
2021/03/20 08:23:33;;;;;;;0.13;0.13;;;;;;;;;;5048520;28;20462;-60
2021/03/20 08:25:59;;;;;;;;;;;;;;;;;;5048808;28;20498;-61
2021/03/20 08:28:25;;;;;;;;;;;;;;;;;;5048972;28;19909;-61
2021/03/20 08:31:10;;;;;;;0.63;0.63;;;;;;;;;;5048230;28;19936;-60
2021/03/20 08:33:43;;;;;;;0.10;0.10;;;;;;;;;;5032524;28;20064;-61
2021/03/20 08:36:21;;;;;;;0.30;0.30;;;;;;;;;;5048247;28;20025;-60
2021/03/20 08:39:06;;;;;;;0.30;0.30;;;;;;;;;;5049997;28;20429;-61
2021/03/20 08:41:32;;;;;;;0.13;0.13;;;;;;;;;;5050200;28;20075;-61
2021/03/20 08:44:07;;;;;;;0.10;0.10;;;;;;;;;;5045767;28;20028;-63
2021/03/20 08:46:52;;;;;;;0.10;0.10;;;;;;;;;;5043183;28;20494;-61
2021/03/20 08:49:30;;;;;;;0.30;0.30;;;;;;;;;;5045831;28;20449;-61
2021/03/20 08:52:01;;;;;;;0.10;0.10;;;;;;;;;;5048871;28;20044;-75
2021/03/20 08:54:46;;;;;;;0.10;0.10;;;;;;;;;;5050211;28;20040;-71
2021/03/20 08:57:16;;;;;;;0.22;0.22;;;;;;;;;;5048373;28;20021;-68
2021/03/20 08:59:49;;;;;;;0.20;0.20;;;;;;;;;;5050302;28;20072;-62
2021/03/20 09:02:15;;;;;;;0.10;0.10;;;;;;;;;;5048078;28;20123;-61
2021/03/20 09:04:41;;;;;;;0.10;0.10;;;;;;;;;;5048180;28;20483;-62
2021/03/20 09:07:13;;;;;;;0.10;0.10;;;;;;;;;;5047771;28;20036;-60
2021/03/20 09:09:54;;;;;;;18.42;0.95;;;;;;;;;;5041693;28;20039;-61
2021/03/20 09:12:26;;;;;;;0.10;0.10;;;;;;;;;;5050279;28;20036;-62
2021/03/20 09:14:52;;;;;;;0.10;0.10;;;;;;;;;;5049920;28;20048;-61
2021/03/20 09:17:21;;;;;;;0.10;0.10;;;;;;;;;;5047626;28;20071;-61
2021/03/20 09:19:52;;;;;;;0.85;0.52;;;;;;;;;;5047286;28;20032;-61
2021/03/20 09:22:20;;;;;;;0.20;0.20;;;;;;;;;;5047713;28;20118;-61
2021/03/20 09:24:57;;;;;;;13.80;0.63;;;;;;;;;;5047673;28;20009;-62
2021/03/20 09:27:44;;;;;;;10.00;1.88;;;;;;;;;;5049314;28;20043;-61
2021/03/20 09:30:17;;;;;;;0.10;0.10;;;;;;;;;;5025118;28;20625;-62
2021/03/20 09:32:47;;;;;;;0.10;0.10;;;;;;;;;;5028457;28;20049;-61
2021/03/20 09:35:23;;;;;;;0.10;0.10;;;;;;;;;;5011055;28;20384;-61
2021/03/20 09:37:55;;;;;;;1.85;1.65;;;;;;;;;;5027735;28;20033;-61
2021/03/20 09:40:59;;;;;;;0.75;0.40;;;;;;;;;;5027587;28;20546;-61
2021/03/20 09:44:04;;;;;;;0.63;0.43;;;;;;;;;;4947677;28;20046;-61
2021/03/20 09:46:36;;;;;;;0.20;0.20;;;;;;;;;;4914739;29;20048;-61
2021/03/20 09:49:08;;;;;;;0.35;0.35;;;;;;;;;;4913432;29;20056;-61
2021/03/20 09:51:54;;;;;;;0.80;0.50;;;;;;;;;;4914642;29;20044;-61
2021/03/20 09:54:23;;;;;;;2.63;0.57;;;;;;;;;;4913191;29;20048;-61
2021/03/20 09:56:50;;;;;;;0.10;0.10;;;;;;;;;;4912005;29;20040;-62
2021/03/20 09:59:28;;;;;;;0.50;0.50;;;;;;;;;;4913251;29;20473;-61
2021/03/20 10:01:56;;;;;;;0.30;0.30;;;;;;;;;;4913495;29;20046;-61
2021/03/20 10:04:28;;;;;;;0.52;0.52;;;;;;;;;;4901304;29;20078;-61
2021/03/20 10:07:13;;;;;;;0.40;0.40;;;;;;;;;;4919922;29;20070;-61
2021/03/20 10:09:58;;;;;;;0.47;0.30;;;;;;;;;;4937502;29;20538;-62
2021/03/20 10:12:37;;;;;;;0.88;0.60;;;;;;;;;;4918155;29;20059;-61
2021/03/20 10:15:05;;;;;;;1.05;0.70;;;;;;;;;;5000516;28;20038;-62
2021/03/20 10:17:33;;;;;;;0.20;0.20;;;;;;;;;;5036366;28;20060;-62
2021/03/20 10:20:08;;;;;;;0.38;0.38;;;;;;;;;;5047918;28;20147;-61
2021/03/20 10:22:34;;;;;;;;;;;;;;;;;;5047179;28;20033;-62
2021/03/20 10:25:00;;;;;;;;;;;;;;;;;;5049055;28;19919;-62
2021/03/20 10:27:31;;;;;;;1.38;0.63;;;;;;;;;;5048336;28;19917;-61
2021/03/20 10:30:10;;;;;;;6.50;1.10;;;;;;;;;;5050072;28;20112;-62
2021/03/20 10:32:36;;;;;;;0.25;0.25;;;;;;;;;;5045092;28;20564;-62
2021/03/20 10:35:05;;;;;;;0.10;0.10;;;;;;;;;;5051101;28;20040;-62
2021/03/20 10:37:33;;;;;;;0.30;0.30;;;;;;;;;;5053372;28;20021;-61
2021/03/20 10:40:11;;;;;;;0.43;0.40;;;;;;;;;;5051071;28;20448;-60
2021/03/20 10:42:39;;;;;;;0.55;0.55;;;;;;;;;;5050445;28;20024;-63
2021/03/20 10:45:40;;;;;;;1.00;0.40;;;;;;;;;;5054885;28;20100;-61
2021/03/20 10:48:07;;;;;;;1.38;0.77;;;;;;;;;;4993109;28;20034;-61
2021/03/20 10:50:35;;;;;;;0.10;0.10;;;;;;;;;;5013154;28;20045;-62
2021/03/20 10:53:03;;;;;;;0.77;0.63;;;;;;;;;;5012528;28;20482;-62
2021/03/20 10:55:32;;;;;;;0.63;0.47;;;;;;;;;;5012296;28;20045;-62
2021/03/20 10:57:58;;;;;;;2.28;2.13;;;;;;;;;;5010267;28;20026;-61
2021/03/20 11:00:28;;;;;;;2.50;1.30;;;;;;;;;;5010942;28;20077;-61
2021/03/20 11:03:07;;;;;;;1.08;1.05;;;;;;;;;;5011885;28;20507;-61
2021/03/20 11:05:33;;;;;;;0.10;0.10;;;;;;;;;;5021582;28;20118;-62
2021/03/20 11:08:10;;;;;;;0.30;0.30;;;;;;;;;;5010206;28;20057;-62
2021/03/20 11:10:41;;;;;;;0.40;0.35;;;;;;;;;;5004149;28;20570;-61
2021/03/20 11:13:10;;;;;;;0.10;0.10;;;;;;;;;;5003182;28;20416;-63
2021/03/20 11:15:37;;;;;;;0.73;0.65;;;;;;;;;;4996505;28;20075;-61
2021/03/20 11:18:08;;;;;;;0.13;0.13;;;;;;;;;;5010954;28;20041;-62
2021/03/20 11:20:36;;;;;;;0.80;0.57;;;;;;;;;;5012574;28;20041;-62
2021/03/20 11:23:02;;;;;;;11.98;0.75;;;;;;;;;;5045432;28;20127;-62
2021/03/20 11:25:39;;;;;;;0.32;0.32;;;;;;;;;;5051171;28;20020;-63
2021/03/20 11:28:14;;;;;;;3.92;1.05;;;;;;;;;;5050019;28;20067;-62
2021/03/20 11:30:48;;;;;;;0.10;0.10;;;;;;;;;;5033736;28;20029;-62
2021/03/20 11:33:15;;;;;;;0.20;0.20;;;;;;;;;;5054435;28;20024;-62
2021/03/20 11:35:43;;;;;;;0.73;0.73;;;;;;;;;;5063745;28;20036;-62
2021/03/20 11:38:12;;;;;;;0.15;0.15;;;;;;;;;;5056894;28;20040;-62
2021/03/20 11:40:41;;;;;;;0.20;0.20;;;;;;;;;;5051534;28;20048;-61
2021/03/20 11:43:13;;;;;;;0.70;0.70;;;;;;;;;;5053672;28;20032;-62
2021/03/20 11:45:40;;;;;;;4.40;0.98;;;;;;;;;;5034406;28;20025;-62
2021/03/20 11:48:26;;;;;;;0.10;0.10;;;;;;;;;;5056891;28;20056;-61
2021/03/20 11:50:54;;;;;;;7.88;0.40;;;;;;;;;;5046026;28;20091;-62
2021/03/20 11:53:27;;;;;;;0.10;0.10;;;;;;;;;;5048724;28;20414;-62
2021/03/20 11:55:55;;;;;;;0.80;0.50;;;;;;;;;;5050842;28;20024;-62
2021/03/20 11:58:24;;;;;;;2.72;0.73;;;;;;;;;;5049611;28;20513;-62
2021/03/20 12:00:50;;;;;;;0.98;0.77;;;;;;;;;;5049189;28;20040;-60
2021/03/20 12:03:22;;;;;;;0.10;0.10;;;;;;;;;;5051719;28;20434;-61
2021/03/20 12:05:49;;;;;;;1.88;0.28;;;;;;;;;;5049138;28;20033;-61
2021/03/20 12:08:18;;;;;;;0.30;0.30;;;;;;;;;;5048841;28;20090;-62
2021/03/20 12:11:10;;;;;;;0.15;0.15;;;;;;;;;;5047756;28;20486;-62
2021/03/20 12:13:40;;;;;;;0.30;0.30;;;;;;;;;;5047254;28;20045;-61
2021/03/20 12:16:06;;;;;;;0.63;0.38;;;;;;;;;;5048697;28;20394;-61
2021/03/20 12:18:33;;;;;;;0.30;0.20;;;;;;;;;;5049952;28;20085;-62
2021/03/20 12:21:06;;;;;;;0.30;0.30;;;;;;;;;;5051591;28;20520;-61
2021/03/20 12:23:34;;;;;;;0.25;0.25;;;;;;;;;;5050096;28;20037;-62
2021/03/20 12:26:01;;;;;;;0.55;0.55;;;;;;;;;;5048956;28;20470;-61
2021/03/20 12:28:35;;;;;;;2.70;0.57;;;;;;;;;;5049184;28;20072;-61
2021/03/20 12:31:07;;;;;;;0.57;0.57;;;;;;;;;;5048991;28;20036;-61
2021/03/20 12:33:46;;;;;;;0.85;0.85;;;;;;;;;;5049015;28;20051;-62
2021/03/20 12:36:30;;;;;;;2.88;1.60;;;;;;;;;;5048297;28;20078;-61
2021/03/20 12:38:57;;;;;;;9.43;3.00;;;;;;;;;;5051311;28;20056;-61
2021/03/20 12:41:24;;;;;;;1.48;1.23;;;;;;;;;;5048420;28;20103;-70
2021/03/20 12:44:23;;;;;;;1.75;1.40;;;;;;;;;;5048636;28;20017;-61
2021/03/20 12:46:50;;;;;;;2.25;1.35;;;;;;;;;;5006870;28;20136;-61
2021/03/20 12:49:17;;;;;;;1.58;0.82;;;;;;;;;;5009123;28;20483;-62
2021/03/20 12:51:44;;;;;;;1.38;0.90;;;;;;;;;;5008611;28;20036;-60
2021/03/20 12:54:16;;;;;;;1.48;1.35;;;;;;;;;;5009035;28;20064;-61
2021/03/20 12:56:42;;;;;;;2.90;1.13;;;;;;;;;;5008654;28;20034;-61
2021/03/20 12:59:08;;;;;;;0.70;0.70;;;;;;;;;;5008390;28;20140;-62
2021/03/20 13:01:34;;;;;;;0.45;0.45;;;;;;;;;;5008386;28;20041;-61
2021/03/20 13:04:01;;;;;;;1.23;0.80;;;;;;;;;;5008802;28;20045;-62
2021/03/20 13:06:27;;;;;;;1.02;0.93;;;;;;;;;;5008292;28;20081;-60
2021/03/20 13:08:53;;;;;;;3.58;1.55;;;;;;;;;;5008129;28;20111;-60
2021/03/20 13:11:22;;;;;;;6.10;1.65;;;;;;;;;;5005649;28;20018;-62
2021/03/20 13:13:48;;;;;;;2.63;1.45;;;;;;;;;;4991906;28;20519;-61
2021/03/20 13:16:15;;;;;;;1.08;0.73;;;;;;;;;;5008130;28;20119;-62
2021/03/20 13:18:41;;;;;;;7.57;2.00;;;;;;;;;;5008008;28;20034;-62
2021/03/20 13:21:07;;;;;;;1.77;1.25;;;;;;;;;;4989617;28;20523;-61
2021/03/20 13:23:33;;;;;;;0.55;0.55;;;;;;;;;;5045114;28;20039;-62
2021/03/20 13:25:59;;;;;;;1.75;1.45;;;;;;;;;;5049039;28;20028;-62
2021/03/20 13:28:25;;;;;;;3.95;2.53;;;;;;;;;;5048790;28;20044;-62
2021/03/20 13:30:51;;;;;;;6.75;1.95;;;;;;;;;;5048673;28;20013;-62
2021/03/20 13:33:17;;;;;;;5.07;2.20;;;;;;;;;;5047802;28;20041;-61
2021/03/20 13:35:45;;;;;;;0.20;0.20;;;;;;;;;;5050220;28;20495;-62
2021/03/20 13:38:11;;;;;;;6.97;2.03;;;;;;;;;;5049183;28;20035;-62
2021/03/20 13:40:38;;;;;;;1.85;1.38;;;;;;;;;;5049187;28;20112;-62
2021/03/20 13:43:05;;;;;;;4.40;2.33;;;;;;;;;;5049286;28;20035;-61
2021/03/20 13:45:32;;;;;;;4.07;2.08;;;;;;;;;;5049052;28;20075;-60
2021/03/20 13:47:58;;;;;;;0.80;0.55;;;;;;;;;;5050470;28;20021;-61
2021/03/20 13:50:27;;;;;;;2.80;1.50;;;;;;;;;;5048980;28;20045;-61
2021/03/20 13:52:53;;;;;;;4.55;2.28;;;;;;;;;;5049133;28;20025;-61
2021/03/20 13:55:20;;;;;;;0.20;0.20;;;;;;;;;;5049375;28;20067;-60
2021/03/20 13:57:46;;;;;;;28.33;5.32;;;;;;;;;;5048955;28;20033;-61
2021/03/20 14:00:12;;;;;;;10.32;5.85;;;;;;;;;;5048347;28;20048;-62
2021/03/20 14:02:40;;;;;;;3.00;1.58;;;;;;;;;;5047806;28;20025;-62
2021/03/20 14:05:07;;;;;;;8.10;2.78;;;;;;;;;;5043783;28;20021;-62
2021/03/20 14:07:35;;;;;;;6.22;2.42;;;;;;;;;;5046776;28;20028;-63
2021/03/20 14:10:02;;;;;;;4.55;2.53;;;;;;;;;;5048240;28;20043;-61
2021/03/20 14:12:28;;;;;;;4.75;3.03;;;;;;;;;;5050432;28;20044;-61
2021/03/20 14:14:56;;;;;;;1.85;1.67;;;;;;;;;;5051678;28;20033;-62
2021/03/20 14:17:23;;;;;;;8.15;3.35;;;;;;;;;;5049313;28;20025;-62
2021/03/20 14:19:50;;;;;;;7.35;2.78;;;;;;;;;;5046107;28;20099;-62
2021/03/20 14:22:16;;;;;;;6.70;2.63;;;;;;;;;;5048721;28;20115;-61
2021/03/20 14:24:42;;;;;;;2.45;1.33;;;;;;;;;;5050797;28;20051;-61
2021/03/20 14:27:09;;;;;;;1.85;0.95;;;;;;;;;;5054053;28;20060;-61
2021/03/20 14:29:35;;;;;;;3.63;1.20;;;;;;;;;;5053321;28;20032;-62
2021/03/20 14:32:01;;;;;;;3.03;1.10;;;;;;;;;;5049808;28;20021;-62
2021/03/20 14:34:28;;;;;;;0.85;0.70;;;;;;;;;;5052146;28;20025;-62
2021/03/20 14:36:54;;;;;;;3.22;1.15;;;;;;;;;;5048427;28;20025;-62
2021/03/20 14:39:20;;;;;;;7.43;2.50;;;;;;;;;;5048241;28;20067;-61
2021/03/20 14:41:47;;;;;;;1.67;1.55;;;;;;;;;;5052526;28;20025;-62
2021/03/20 14:44:14;;;;;;;1.02;0.82;;;;;;;;;;5051807;28;20075;-62
2021/03/20 14:46:42;;;;;;;1.08;0.88;;;;;;;;;;5049645;28;20024;-60
2021/03/20 14:49:08;;;;;;;1.70;1.35;;;;;;;;;;5051877;28;20045;-62
2021/03/20 14:51:34;;;;;;;3.17;1.80;;;;;;;;;;5050576;28;20124;-62
2021/03/20 14:54:00;;;;;;;0.95;0.90;;;;;;;;;;5053884;28;20029;-62
2021/03/20 14:56:26;;;;;;;3.75;1.88;;;;;;;;;;5050573;28;20036;-61
2021/03/20 14:58:53;;;;;;;2.03;0.77;;;;;;;;;;5044202;28;20123;-61
2021/03/20 15:01:19;;;;;;;6.03;2.00;;;;;;;;;;5043516;28;20033;-61
2021/03/20 15:03:45;;;;;;;4.18;2.30;;;;;;;;;;5049115;28;20025;-61
2021/03/20 15:06:11;;;;;;;5.10;2.10;;;;;;;;;;5053020;28;20032;-60
2021/03/20 15:08:37;;;;;;;3.17;2.53;;;;;;;;;;5050764;28;20140;-61
2021/03/20 15:11:04;;;;;;;2.20;1.35;;;;;;;;;;5050627;28;20431;-60
2021/03/20 15:13:31;;;;;;;2.65;0.73;;;;;;;;;;5047362;28;20025;-60
2021/03/20 15:15:57;;;;;;;2.72;1.30;;;;;;;;;;5051771;28;20490;-62
2021/03/20 15:18:34;;;;;;;0.90;0.90;;;;;;;;;;5052008;28;20019;-61
2021/03/20 15:21:02;;;;;;;4.13;3.25;;;;;;;;;;5052712;28;20040;-60
2021/03/20 15:23:31;;;;;;;4.45;2.03;;;;;;;;;;5051323;28;20025;-60
2021/03/20 15:25:58;;;;;;;4.45;2.25;;;;;;;;;;5051899;28;20025;-60
2021/03/20 15:28:25;;;;;;;9.05;2.67;;;;;;;;;;5049766;28;20029;-61
2021/03/20 15:30:51;;;;;;;1.35;0.98;;;;;;;;;;5049974;28;20104;-61
2021/03/20 15:33:18;;;;;;;0.10;0.10;;;;;;;;;;5051814;28;20029;-62
2021/03/20 15:35:45;;;;;;;0.85;0.57;;;;;;;;;;5049751;28;20028;-61
2021/03/20 15:38:11;;;;;;;12.38;2.85;;;;;;;;;;5050072;28;20104;-62
2021/03/20 15:40:42;;;;;;;2.47;1.35;;;;;;;;;;5049959;28;20025;-61
2021/03/20 15:43:09;;;;;;;1.05;0.95;;;;;;;;;;5050069;28;20075;-61
2021/03/20 15:45:36;;;;;;;2.92;0.45;;;;;;;;;;5050128;28;20060;-62
2021/03/20 15:48:02;;;;;;;1.42;0.93;;;;;;;;;;5052699;28;20040;-62
2021/03/20 15:50:31;;;;;;;1.80;1.00;;;;;;;;;;5050083;28;20441;-61
2021/03/20 15:52:58;;;;;;;4.13;1.45;;;;;;;;;;5049578;28;20033;-61
2021/03/20 15:55:26;;;;;;;2.53;1.65;;;;;;;;;;5049643;28;20032;-62
2021/03/20 15:57:53;;;;;;;2.33;1.52;;;;;;;;;;5049125;28;20076;-61
2021/03/20 16:00:19;;;;;;;4.38;2.08;;;;;;;;;;5048855;28;20605;-62
2021/03/20 16:02:46;;;;;;;1.40;1.25;;;;;;;;;;5042808;28;20106;-61
2021/03/20 16:05:13;;;;;;;3.92;2.25;;;;;;;;;;5041743;28;20087;-62
2021/03/20 16:07:39;;;;;;;0.50;0.43;;;;;;;;;;5044190;28;20112;-60
2021/03/20 16:10:06;;;;;;;1.05;1.05;;;;;;;;;;5043174;28;20049;-62
2021/03/20 16:12:32;;;;;;;0.45;0.45;;;;;;;;;;5043908;28;20515;-62
2021/03/20 16:14:58;;;;;;;2.63;0.90;;;;;;;;;;5047147;28;20052;-60
2021/03/20 16:17:24;;;;;;;1.77;0.93;;;;;;;;;;5049788;28;20085;-61
2021/03/20 16:19:50;;;;;;;0.30;0.30;;;;;;;;;;5048807;28;20128;-61
2021/03/20 16:22:16;;;;;;;1.80;1.08;;;;;;;;;;5031873;28;20087;-61
2021/03/20 16:24:42;;;;;;;0.98;0.30;;;;;;;;;;5031729;28;20622;-62
2021/03/20 16:27:13;;;;;;;2.40;1.52;;;;;;;;;;5047168;28;20025;-61
2021/03/20 16:29:39;;;;;;;2.38;1.60;;;;;;;;;;5039827;28;20462;-62
2021/03/20 16:32:05;;;;;;;0.63;0.57;;;;;;;;;;5046013;28;20104;-61
2021/03/20 16:34:31;;;;;;;4.20;1.83;;;;;;;;;;5027193;28;20372;-61
2021/03/20 16:36:57;;;;;;;2.78;1.70;;;;;;;;;;5045000;28;20021;-60
2021/03/20 16:39:24;;;;;;;1.42;0.93;;;;;;;;;;5041584;28;20021;-60
2021/03/20 16:41:50;;;;;;;1.55;1.10;;;;;;;;;;5043595;28;20029;-62
2021/03/20 16:44:16;;;;;;;0.75;0.55;;;;;;;;;;5035206;28;20040;-62
2021/03/20 16:46:45;;;;;;;2.47;1.08;;;;;;;;;;5031683;28;20462;-62
2021/03/20 16:49:12;;;;;;;2.47;1.35;;;;;;;;;;5034233;28;20471;-62
2021/03/20 16:51:38;;;;;;;0.10;0.10;;;;;;;;;;5042657;28;20124;-62
2021/03/20 16:54:05;;;;;;;1.38;0.98;;;;;;;;;;5048359;28;20407;-62
2021/03/20 16:56:31;;;;;;;2.30;0.77;;;;;;;;;;5044713;28;20032;-62
2021/03/20 16:58:58;;;;;;;1.50;1.40;;;;;;;;;;5046487;28;20036;-62
2021/03/20 17:01:25;;;;;;;2.10;1.42;;;;;;;;;;5047991;28;20056;-63
2021/03/20 17:03:51;;;;;;;1.52;0.75;;;;;;;;;;5045143;28;20398;-67
2021/03/20 17:06:19;;;;;;;0.20;0.20;;;;;;;;;;5046321;28;20465;-66
2021/03/20 17:08:45;;;;;;;0.10;0.10;;;;;;;;;;5048593;28;20040;-67
2021/03/20 17:11:11;;;;;;;0.82;0.82;;;;;;;;;;5047576;28;20025;-62
2021/03/20 17:13:37;;;;;;;0.43;0.43;;;;;;;;;;5043261;28;20040;-61
2021/03/20 17:16:04;;;;;;;4.88;1.67;;;;;;;;;;5035858;28;20021;-63
2021/03/20 17:18:31;;;;;;;3.92;0.65;;;;;;;;;;5047284;28;20017;-62
2021/03/20 17:20:59;;;;;;;0.10;0.10;;;;;;;;;;5042442;28;20029;-64
2021/03/20 17:23:25;;;;;;;0.13;0.13;;;;;;;;;;5045103;28;21168;-62
2021/03/20 17:25:51;;;;;;;7.22;1.65;;;;;;;;;;5041824;28;20426;-61
2021/03/20 17:28:18;;;;;;;1.25;1.05;;;;;;;;;;5045730;28;20029;-62
2021/03/20 17:30:45;;;;;;;3.30;0.98;;;;;;;;;;5045084;28;20028;-62
2021/03/20 17:33:11;;;;;;;0.28;0.28;;;;;;;;;;5045477;28;20021;-62
2021/03/20 17:35:37;;;;;;;1.95;0.40;;;;;;;;;;5044201;28;20040;-61
2021/03/20 17:38:06;;;;;;;0.65;0.65;;;;;;;;;;5041804;28;20108;-63
2021/03/20 17:40:33;;;;;;;0.63;0.63;;;;;;;;;;5043455;28;20025;-62
2021/03/20 17:42:59;;;;;;;0.10;0.10;;;;;;;;;;5036315;28;20032;-61
2021/03/20 17:45:26;;;;;;;0.60;0.60;;;;;;;;;;5034551;28;20025;-63
2021/03/20 17:47:53;;;;;;;1.05;0.95;;;;;;;;;;5050633;28;20047;-62
2021/03/20 17:50:22;;;;;;;4.57;1.33;;;;;;;;;;5046442;28;20076;-62
2021/03/20 17:52:48;;;;;;;0.32;0.30;;;;;;;;;;5042343;28;20025;-60
2021/03/20 17:55:15;;;;;;;0.10;0.10;;;;;;;;;;5046400;28;20033;-62
2021/03/20 17:57:41;;;;;;;0.20;0.20;;;;;;;;;;5046009;28;20507;-62
2021/03/20 18:00:08;;;;;;;1.73;1.08;;;;;;;;;;5050473;28;20506;-62
2021/03/20 18:02:38;;;;;;;1.88;1.38;;;;;;;;;;5047913;28;20112;-62
2021/03/20 18:05:04;;;;;;;0.10;0.10;;;;;;;;;;5047229;28;20444;-67
2021/03/20 18:07:30;;;;;;;1.90;1.80;;;;;;;;;;5048254;28;20065;-65
2021/03/20 18:09:56;;;;;;;0.40;0.40;;;;;;;;;;5046901;28;20128;-66
2021/03/20 18:12:23;;;;;;;0.40;0.40;;;;;;;;;;5048674;28;20053;-65
2021/03/20 18:14:49;;;;;;;1.38;0.93;;;;;;;;;;5049700;28;20059;-64
2021/03/20 18:17:15;;;;;;;0.73;0.73;;;;;;;;;;5048184;28;20035;-63
2021/03/20 18:19:41;;;;;;;0.17;0.17;;;;;;;;;;5048364;28;20163;-63
2021/03/20 18:22:07;;;;;;;1.55;1.00;;;;;;;;;;5047428;28;20017;-61
2021/03/20 18:24:33;;;;;;;0.20;0.20;;;;;;;;;;5048567;28;20108;-62
2021/03/20 18:26:59;;;;;;;1.15;1.08;;;;;;;;;;5049808;28;20487;-62
2021/03/20 18:29:25;;;;;;;0.30;0.30;;;;;;;;;;5047987;28;20049;-62
2021/03/20 18:31:51;;;;;;;0.68;0.65;;;;;;;;;;5048422;28;20063;-62
2021/03/20 18:34:17;;;;;;;1.05;1.05;;;;;;;;;;5046649;28;20135;-63
2021/03/20 18:36:44;;;;;;;0.55;0.55;;;;;;;;;;5047561;28;20025;-62
2021/03/20 18:39:10;;;;;;;0.38;0.38;;;;;;;;;;5050086;28;20070;-62
2021/03/20 18:41:36;;;;;;;7.57;1.48;;;;;;;;;;5047157;28;20627;-62
2021/03/20 18:44:03;;;;;;;1.45;0.95;;;;;;;;;;5047428;28;20029;-62
2021/03/20 18:46:29;;;;;;;0.52;0.45;;;;;;;;;;5047128;28;20027;-62
2021/03/20 18:48:56;;;;;;;0.10;0.10;;;;;;;;;;5045456;28;20380;-62
2021/03/20 18:51:22;;;;;;;3.55;1.45;;;;;;;;;;5049440;28;20029;-61
2021/03/20 18:53:49;;;;;;;0.22;0.22;;;;;;;;;;5048209;28;20037;-62
2021/03/20 18:56:15;;;;;;;0.10;0.10;;;;;;;;;;5046684;28;20025;-62
2021/03/20 18:58:43;;;;;;;0.38;0.38;;;;;;;;;;5050684;28;20072;-63
2021/03/20 19:01:09;;;;;;;0.10;0.10;;;;;;;;;;5050060;28;20498;-63
2021/03/20 19:03:36;;;;;;;0.10;0.10;;;;;;;;;;5049418;28;20375;-63
2021/03/20 19:06:03;;;;;;;0.38;0.38;;;;;;;;;;5053735;28;20028;-63
2021/03/20 19:08:34;;;;;;;2.25;1.20;;;;;;;;;;5051432;28;20148;-61
2021/03/20 19:11:00;;;;;;;0.10;0.10;;;;;;;;;;5049681;28;20119;-64
2021/03/20 19:13:26;;;;;;;0.10;0.10;;;;;;;;;;5048312;28;20026;-63
2021/03/20 19:15:53;;;;;;;3.42;0.93;;;;;;;;;;5045136;28;20455;-64
2021/03/20 19:18:21;;;;;;;0.10;0.10;;;;;;;;;;5050302;28;20059;-63
2021/03/20 19:20:47;;;;;;;0.10;0.10;;;;;;;;;;5049489;28;20028;-62
2021/03/20 19:23:13;;;;;;;0.10;0.10;;;;;;;;;;5048331;28;20482;-64
2021/03/20 19:25:39;;;;;;;0.10;0.10;;;;;;;;;;5049976;28;20047;-63
2021/03/20 19:28:06;;;;;;;0.10;0.10;;;;;;;;;;5047950;28;20071;-63
2021/03/20 19:30:33;;;;;;;0.10;0.10;;;;;;;;;;5047656;28;20040;-62
2021/03/20 19:33:00;;;;;;;0.10;0.10;;;;;;;;;;5048304;28;20101;-62
2021/03/20 19:35:26;;;;;;;0.10;0.10;;;;;;;;;;5048131;28;20037;-64
2021/03/20 19:37:53;;;;;;;0.80;0.80;;;;;;;;;;5047752;28;20084;-62
2021/03/20 19:40:31;;;;;;;0.43;0.43;;;;;;;;;;5048353;28;20029;-63
2021/03/20 19:42:57;;;;;;;0.30;0.30;;;;;;;;;;5045388;28;20095;-62
2021/03/20 19:45:24;;;;;;;0.10;0.10;;;;;;;;;;5047585;28;20017;-63
2021/03/20 19:47:52;;;;;;;0.10;0.10;;;;;;;;;;5048843;28;20071;-62
2021/03/20 19:50:22;;;;;;;0.10;0.10;;;;;;;;;;5042196;28;20415;-62
2021/03/20 19:52:49;;;;;;;0.20;0.20;;;;;;;;;;5052249;28;20478;-64
2021/03/20 19:55:15;;;;;;;0.75;0.75;;;;;;;;;;5058384;28;20069;-64
2021/03/20 19:57:41;;;;;;;0.40;0.40;;;;;;;;;;5045935;28;20028;-63
2021/03/20 20:00:07;;;;;;;0.20;0.20;;;;;;;;;;5048008;28;20053;-62
2021/03/20 20:02:33;;;;;;;0.10;0.10;;;;;;;;;;5075249;28;20032;-64
2021/03/20 20:04:59;;;;;;;0.10;0.10;;;;;;;;;;5049148;28;20029;-61
2021/03/20 20:07:26;;;;;;;0.10;0.10;;;;;;;;;;5051387;28;20145;-63
2021/03/20 20:09:52;;;;;;;0.32;0.32;;;;;;;;;;5042628;28;20123;-63
2021/03/20 20:12:18;;;;;;;1.55;1.45;;;;;;;;;;5050202;28;20111;-63
2021/03/20 20:14:44;;;;;;;1.02;1.02;;;;;;;;;;5052799;28;20380;-61
2021/03/20 20:17:10;;;;;;;0.10;0.10;;;;;;;;;;5051001;28;20033;-64
2021/03/20 20:19:37;;;;;;;0.20;0.20;;;;;;;;;;5051465;28;20059;-62
2021/03/20 20:22:05;;;;;;;0.17;0.17;;;;;;;;;;5049493;28;20028;-63
2021/03/20 20:24:33;;;;;;;0.68;0.68;;;;;;;;;;5048037;28;20033;-63
2021/03/20 20:26:59;;;;;;;2.38;0.63;;;;;;;;;;5045055;28;20037;-63
2021/03/20 20:29:27;;;;;;;0.30;0.30;;;;;;;;;;5056877;28;20040;-62
2021/03/20 20:31:53;;;;;;;0.30;0.30;;;;;;;;;;5044454;28;20028;-62
2021/03/20 20:34:20;;;;;;;0.68;0.68;;;;;;;;;;5051069;28;20016;-62
2021/03/20 20:36:46;;;;;;;0.10;0.10;;;;;;;;;;5045889;28;20509;-63
2021/03/20 20:39:13;;;;;;;5.30;1.40;;;;;;;;;;5050929;28;20040;-63
2021/03/20 20:41:40;;;;;;;0.45;0.45;;;;;;;;;;5051926;28;20029;-63
2021/03/20 20:44:08;;;;;;;0.15;0.15;;;;;;;;;;5050787;28;20033;-63
2021/03/20 20:46:37;;;;;;;0.10;0.10;;;;;;;;;;5048358;28;20024;-63
2021/03/20 20:49:03;;;;;;;0.17;0.17;;;;;;;;;;5041149;28;20082;-62
2021/03/20 20:51:29;;;;;;;0.10;0.10;;;;;;;;;;5040132;28;20043;-61
2021/03/20 20:53:55;;;;;;;0.10;0.10;;;;;;;;;;5042969;28;20068;-62
2021/03/20 20:56:22;;;;;;;0.30;0.30;;;;;;;;;;5049195;28;20116;-62